Time;durP1;ratioP1;P1;durP2;ratioP2;P2;SDS_P1;SDS_P2;PMS_P1;PMS_P2;Temp;Humidity;BMP_temperature;BMP_pressure;BME280_temperature;BME280_humidity;BME280_pressure;Samples;Min_cycle;Max_cycle;Signal;HPM_P1;HPM_P2
2022/07/11 00:02:43;;;;;;;3.63;1.35;;;15.90;99.90;;;;;;6192426;28;20269;-67
2022/07/11 00:05:49;;;;;;;1.40;1.40;;;15.90;99.90;;;;;;6174769;28;20267;-67
2022/07/11 00:08:54;;;;;;;1.20;1.20;;;15.90;99.90;;;;;;6168004;29;20459;-67
2022/07/11 00:12:01;;;;;;;1.10;1.10;;;15.90;99.90;;;;;;6167773;29;20507;-67
2022/07/11 00:15:08;;;;;;;0.95;0.95;;;15.90;99.90;;;;;;6167853;29;20271;-67
2022/07/11 00:18:13;;;;;;;2.85;1.30;;;15.80;99.90;;;;;;6167947;29;20298;-67
2022/07/11 00:21:19;;;;;;;1.10;1.10;;;15.80;99.90;;;;;;6167556;29;20271;-67
2022/07/11 00:24:24;;;;;;;1.40;1.40;;;15.80;99.90;;;;;;6167751;28;20275;-67
2022/07/11 00:27:31;;;;;;;1.40;1.13;;;15.80;99.90;;;;;;6167839;29;20557;-67
2022/07/11 00:30:36;;;;;;;2.70;1.13;;;15.80;99.90;;;;;;6168087;28;20274;-67
2022/07/11 00:33:41;;;;;;;1.10;1.10;;;15.80;99.90;;;;;;6168002;28;20276;-67
2022/07/11 00:36:47;;;;;;;1.00;1.00;;;15.80;99.90;;;;;;6167292;29;20293;-67
2022/07/11 00:39:53;;;;;;;1.08;1.08;;;15.80;99.90;;;;;;6167572;29;20274;-67
2022/07/11 00:42:59;;;;;;;1.00;1.00;;;15.80;99.90;;;;;;6167230;29;20274;-67
2022/07/11 00:46:06;;;;;;;0.90;0.90;;;15.70;99.90;;;;;;6167393;28;20274;-67
2022/07/11 00:49:12;;;;;;;2.10;0.90;;;15.70;99.90;;;;;;6167502;28;20451;-67
2022/07/11 00:52:17;;;;;;;1.85;1.13;;;15.70;99.90;;;;;;6166895;29;20298;-67
2022/07/11 00:55:22;;;;;;;1.17;1.17;;;15.70;99.90;;;;;;6166920;29;20279;-67
2022/07/11 00:58:29;;;;;;;1.30;1.20;;;15.60;99.90;;;;;;6167266;28;20294;-67
2022/07/11 01:01:36;;;;;;;1.15;1.15;;;15.60;99.90;;;;;;6167461;28;20274;-67
2022/07/11 01:04:42;;;;;;;1.27;1.27;;;15.60;99.90;;;;;;6166548;29;20267;-67
2022/07/11 01:07:47;;;;;;;1.20;1.20;;;15.70;99.90;;;;;;6166760;28;20283;-67
2022/07/11 01:10:52;;;;;;;1.27;1.27;;;15.60;99.90;;;;;;6166726;28;20274;-66
2022/07/11 01:13:59;;;;;;;1.08;1.08;;;15.60;99.90;;;;;;6166449;28;20318;-67
2022/07/11 01:17:05;;;;;;;1.00;1.00;;;15.60;99.90;;;;;;6166677;28;20565;-66
2022/07/11 01:20:13;;;;;;;1.58;1.00;;;15.60;99.90;;;;;;6166945;28;20278;-67
2022/07/11 01:23:19;;;;;;;1.00;1.00;;;15.50;99.90;;;;;;6166703;28;20274;-67
2022/07/11 01:26:26;;;;;;;1.70;1.10;;;15.40;99.90;;;;;;6166417;28;20274;-67
2022/07/11 01:29:31;;;;;;;0.95;0.95;;;15.50;99.90;;;;;;6166279;28;20283;-67
2022/07/11 01:32:36;;;;;;;0.95;0.95;;;15.50;99.90;;;;;;6166256;28;20534;-67
2022/07/11 01:35:41;;;;;;;1.17;1.17;;;15.60;99.90;;;;;;6166376;28;20278;-67
2022/07/11 01:38:48;;;;;;;1.05;1.05;;;15.60;99.90;;;;;;6165864;28;20476;-67
2022/07/11 01:41:53;;;;;;;0.93;0.93;;;15.50;99.90;;;;;;6165987;28;20274;-66
2022/07/11 01:44:58;;;;;;;4.03;1.10;;;15.40;99.90;;;;;;6166161;28;20271;-67
2022/07/11 01:48:04;;;;;;;0.95;0.95;;;15.40;99.90;;;;;;6165678;28;20282;-67
2022/07/11 01:51:10;;;;;;;1.00;1.00;;;15.40;99.90;;;;;;6165999;28;20290;-66
2022/07/11 01:54:16;;;;;;;1.40;1.10;;;15.40;99.90;;;;;;6165308;28;20270;-66
2022/07/11 01:57:22;;;;;;;1.10;1.10;;;15.40;99.90;;;;;;6164927;28;20270;-67
2022/07/11 02:00:27;;;;;;;1.00;1.00;;;15.30;99.90;;;;;;6165779;28;20443;-67
2022/07/11 02:03:32;;;;;;;2.58;1.30;;;15.30;99.90;;;;;;6165426;28;20443;-66
2022/07/11 02:06:38;;;;;;;1.33;1.00;;;15.40;99.90;;;;;;6165829;28;20537;-66
2022/07/11 02:09:44;;;;;;;1.15;1.15;;;15.40;99.90;;;;;;6165456;28;20561;-66
2022/07/11 02:12:50;;;;;;;2.40;1.05;;;15.40;99.90;;;;;;6165417;28;20303;-66
2022/07/11 02:15:55;;;;;;;1.00;1.00;;;15.40;99.90;;;;;;6165349;29;20569;-67
2022/07/11 02:19:00;;;;;;;1.80;1.13;;;15.40;99.90;;;;;;6164626;29;20401;-67
2022/07/11 02:22:06;;;;;;;1.08;1.08;;;15.40;99.90;;;;;;6165206;29;20293;-67
2022/07/11 02:25:13;;;;;;;1.75;1.15;;;15.40;99.90;;;;;;6165515;28;20274;-66
2022/07/11 02:28:18;;;;;;;1.25;1.15;;;15.30;99.90;;;;;;6165175;29;20311;-67
2022/07/11 02:31:23;;;;;;;0.90;0.90;;;15.30;99.90;;;;;;6164741;29;20275;-67
2022/07/11 02:34:29;;;;;;;0.90;0.90;;;15.40;99.90;;;;;;6165067;29;20274;-67
2022/07/11 02:37:34;;;;;;;1.23;1.23;;;15.30;99.90;;;;;;6164591;29;20279;-67
2022/07/11 02:40:41;;;;;;;1.52;1.30;;;15.30;99.90;;;;;;6164667;28;20294;-67
2022/07/11 02:43:46;;;;;;;1.05;1.05;;;15.20;99.90;;;;;;6164573;28;20270;-67
2022/07/11 02:46:51;;;;;;;1.40;1.40;;;15.20;99.90;;;;;;6164894;28;20279;-67
2022/07/11 02:49:56;;;;;;;1.00;1.00;;;15.20;99.90;;;;;;6164755;29;20279;-67
2022/07/11 02:53:01;;;;;;;4.68;1.88;;;15.20;99.90;;;;;;6164347;29;20278;-67
2022/07/11 02:56:08;;;;;;;1.10;1.10;;;15.20;99.90;;;;;;6164726;28;20278;-66
2022/07/11 02:59:14;;;;;;;1.40;1.33;;;15.20;99.90;;;;;;6164706;28;20290;-67
2022/07/11 03:02:20;;;;;;;1.10;1.10;;;15.10;99.90;;;;;;6164617;29;20274;-66
2022/07/11 03:05:25;;;;;;;2.05;1.10;;;15.10;99.90;;;;;;6164126;29;20266;-66
2022/07/11 03:08:30;;;;;;;1.38;1.23;;;15.10;99.90;;;;;;6163429;29;20451;-66
2022/07/11 03:11:37;;;;;;;1.30;1.30;;;15.10;99.90;;;;;;6169109;28;20305;-66
2022/07/11 03:14:42;;;;;;;1.20;1.20;;;15.20;99.90;;;;;;6188043;28;20565;-66
2022/07/11 03:17:48;;;;;;;6.22;1.35;;;15.20;99.90;;;;;;6188059;28;20277;-67
2022/07/11 03:20:53;;;;;;;1.40;1.40;;;15.20;99.90;;;;;;6188085;28;20294;-66
2022/07/11 03:23:58;;;;;;;1.40;1.40;;;15.10;99.90;;;;;;6187934;28;20454;-67
2022/07/11 03:27:06;;;;;;;1.30;1.30;;;15.20;99.90;;;;;;6188069;28;20277;-67
2022/07/11 03:30:17;;;;;;;1.33;1.27;;;15.10;99.90;;;;;;6187808;28;20282;-66
2022/07/11 03:33:22;;;;;;;1.30;1.30;;;15.20;99.90;;;;;;6188047;28;20279;-67
2022/07/11 03:36:28;;;;;;;1.40;1.40;;;15.20;99.90;;;;;;6187559;28;20459;-67
2022/07/11 03:39:33;;;;;;;1.10;1.10;;;15.20;99.90;;;;;;6187846;28;20293;-66
2022/07/11 03:42:40;;;;;;;1.33;1.33;;;15.20;99.90;;;;;;6187823;28;20570;-67
2022/07/11 03:45:45;;;;;;;1.50;1.48;;;15.10;99.90;;;;;;6187691;28;20278;-67
2022/07/11 03:48:51;;;;;;;1.80;1.40;;;15.10;99.90;;;;;;6187867;28;20274;-67
2022/07/11 03:51:56;;;;;;;1.20;1.20;;;15.10;99.90;;;;;;6187387;28;20269;-67
2022/07/11 03:55:01;;;;;;;1.23;1.13;;;15.10;99.90;;;;;;6187553;28;20582;-66
2022/07/11 03:58:08;;;;;;;1.30;1.20;;;15.20;99.90;;;;;;6187246;28;20289;-66
2022/07/11 04:01:13;;;;;;;2.83;1.10;;;15.20;99.90;;;;;;6187539;28;20297;-67
2022/07/11 04:04:18;;;;;;;1.75;1.45;;;15.10;99.90;;;;;;6182622;28;20267;-66
2022/07/11 04:07:24;;;;;;;1.20;1.20;;;15.10;99.90;;;;;;6163907;28;20278;-66
2022/07/11 04:10:29;;;;;;;1.17;1.17;;;15.20;99.90;;;;;;6163546;28;20282;-66
2022/07/11 04:13:35;;;;;;;1.75;1.10;;;15.30;99.90;;;;;;6163336;28;20298;-66
2022/07/11 04:16:40;;;;;;;0.98;0.98;;;15.20;99.90;;;;;;6163293;29;20294;-66
2022/07/11 04:19:46;;;;;;;1.20;1.20;;;15.30;99.90;;;;;;6164704;28;20299;-66
2022/07/11 04:22:51;;;;;;;1.95;1.40;;;15.30;99.90;;;;;;6168006;29;20461;-66
2022/07/11 04:25:56;;;;;;;1.17;1.17;;;15.30;99.90;;;;;;6167757;29;20274;-67
2022/07/11 04:29:03;;;;;;;1.25;1.25;;;15.30;99.90;;;;;;6167864;29;20274;-67
2022/07/11 04:32:10;;;;;;;1.00;1.00;;;15.30;99.90;;;;;;6167604;29;20274;-67
2022/07/11 04:35:17;;;;;;;2.53;0.90;;;15.40;99.90;;;;;;6167358;29;20274;-67
2022/07/11 04:38:23;;;;;;;1.98;1.00;;;15.50;99.90;;;;;;6167225;29;20274;-67
2022/07/11 04:41:29;;;;;;;2.63;1.98;;;15.50;99.90;;;;;;6167008;29;20308;-67
2022/07/11 04:44:36;;;;;;;1.55;1.08;;;15.50;99.90;;;;;;6167453;29;20279;-67
2022/07/11 04:47:41;;;;;;;1.50;1.00;;;15.50;99.90;;;;;;6167512;28;20274;-67
2022/07/11 04:50:47;;;;;;;3.20;1.52;;;15.50;99.90;;;;;;6167746;28;20278;-67
2022/07/11 04:53:52;;;;;;;1.20;1.20;;;15.50;99.90;;;;;;6166889;29;20274;-66
2022/07/11 04:56:57;;;;;;;1.52;1.00;;;15.60;99.90;;;;;;6167059;29;20290;-67
2022/07/11 05:00:06;;;;;;;2.63;1.00;;;15.70;99.90;;;;;;6166745;29;20298;-67
2022/07/11 05:03:14;;;;;;;1.10;1.10;;;15.70;99.90;;;;;;6167060;29;20578;-67
2022/07/11 05:06:20;;;;;;;0.82;0.82;;;15.80;99.90;;;;;;6166415;29;20266;-66
2022/07/11 05:09:25;;;;;;;1.10;1.10;;;15.80;99.90;;;;;;6166732;29;20294;-67
2022/07/11 05:12:30;;;;;;;0.90;0.90;;;15.90;99.90;;;;;;6176545;28;20334;-67
2022/07/11 05:15:38;;;;;;;1.95;1.00;;;16.00;99.90;;;;;;6190513;28;20274;-67
2022/07/11 05:18:43;;;;;;;0.75;0.75;;;16.00;99.90;;;;;;6190145;28;20293;-67
2022/07/11 05:21:49;;;;;;;1.00;1.00;;;16.10;99.90;;;;;;6190508;28;20495;-67
2022/07/11 05:24:54;;;;;;;1.25;0.90;;;16.20;99.90;;;;;;6190051;28;20582;-67
2022/07/11 05:27:59;;;;;;;0.80;0.80;;;16.30;99.90;;;;;;6190289;28;20277;-67
2022/07/11 05:31:06;;;;;;;0.90;0.90;;;16.30;99.90;;;;;;6188967;28;20468;-67
2022/07/11 05:34:11;;;;;;;0.90;0.90;;;16.50;99.90;;;;;;6189709;28;20273;-67
2022/07/11 05:37:16;;;;;;;1.00;1.00;;;16.80;99.90;;;;;;6190087;28;20273;-67
2022/07/11 05:40:22;;;;;;;2.42;0.90;;;17.00;99.90;;;;;;6189785;28;20274;-67
2022/07/11 05:43:28;;;;;;;1.02;0.90;;;17.20;99.90;;;;;;6190055;28;20274;-67
2022/07/11 05:46:39;;;;;;;1.00;1.00;;;17.40;99.90;;;;;;6189389;28;20277;-67
2022/07/11 05:49:44;;;;;;;0.90;0.90;;;17.50;99.90;;;;;;6189405;28;20459;-67
2022/07/11 05:52:50;;;;;;;3.30;0.90;;;17.70;99.90;;;;;;6189497;28;20278;-67
2022/07/11 05:55:55;;;;;;;1.35;1.00;;;17.80;99.90;;;;;;6189461;28;20270;-67
2022/07/11 05:59:00;;;;;;;0.80;0.80;;;17.90;99.90;;;;;;6189205;28;20287;-67
2022/07/11 06:02:07;;;;;;;0.80;0.80;;;18.10;99.90;;;;;;6189470;28;20483;-67
2022/07/11 06:05:13;;;;;;;1.60;0.90;;;18.10;99.90;;;;;;6177559;28;20539;-67
2022/07/11 06:11:41;;;;;;;1.00;1.00;;;18.30;99.90;;;;;;6165469;28;20326;-67
2022/07/11 06:14:46;;;;;;;0.70;0.70;;;18.20;99.90;;;;;;6165321;28;20274;-67
2022/07/11 06:17:53;;;;;;;0.93;0.93;;;18.30;99.90;;;;;;6165272;29;20278;-68
2022/07/11 06:20:58;;;;;;;1.27;1.00;;;18.50;99.90;;;;;;6164748;29;20274;-67
2022/07/11 06:24:04;;;;;;;1.00;1.00;;;18.50;99.90;;;;;;6165284;29;20586;-68
2022/07/11 06:27:10;;;;;;;0.80;0.80;;;18.60;99.90;;;;;;6165143;29;20274;-67
2022/07/11 06:30:15;;;;;;;0.80;0.80;;;18.70;99.90;;;;;;6165240;28;20274;-67
2022/07/11 06:33:22;;;;;;;1.65;0.93;;;18.70;99.90;;;;;;6165260;28;20278;-68
2022/07/11 06:36:27;;;;;;;0.60;0.60;;;18.80;99.90;;;;;;6164968;29;20279;-68
2022/07/11 06:39:32;;;;;;;1.50;0.80;;;18.80;99.90;;;;;;6164627;29;20274;-67
2022/07/11 06:42:37;;;;;;;0.70;0.70;;;18.80;99.90;;;;;;6164363;28;20467;-68
2022/07/11 06:45:46;;;;;;;0.80;0.80;;;18.90;99.90;;;;;;6164500;28;20570;-68
2022/07/11 06:48:52;;;;;;;2.65;0.70;;;19.00;99.90;;;;;;6164823;29;20275;-68
2022/07/11 06:51:57;;;;;;;0.73;0.73;;;19.00;99.90;;;;;;6164540;29;20289;-67
2022/07/11 06:55:03;;;;;;;2.92;0.70;;;19.10;99.90;;;;;;6164672;29;20278;-68
2022/07/11 06:58:09;;;;;;;0.68;0.68;;;19.10;99.90;;;;;;6164644;29;20272;-68
2022/07/11 07:01:29;;;;;;;0.55;0.55;;;19.40;99.90;;;;;;6164511;29;20270;-68
2022/07/11 07:04:36;;;;;;;1.17;0.60;;;19.50;99.90;;;;;;6164214;29;20266;-67
2022/07/11 07:07:41;;;;;;;1.35;0.50;;;19.40;99.90;;;;;;6164197;28;20278;-68
2022/07/11 07:10:46;;;;;;;0.50;0.50;;;19.70;99.90;;;;;;6164357;29;20275;-67
2022/07/11 07:13:51;;;;;;;0.40;0.40;;;19.80;99.90;;;;;;6184745;28;20310;-67
2022/07/11 07:16:57;;;;;;;0.63;0.63;;;19.80;99.90;;;;;;6187458;28;20277;-68
2022/07/11 07:20:04;;;;;;;1.45;0.50;;;20.00;99.90;;;;;;6187805;28;20443;-68
2022/07/11 07:23:10;;;;;;;0.43;0.43;;;20.10;99.90;;;;;;6187924;28;20294;-68
2022/07/11 07:26:17;;;;;;;0.50;0.50;;;20.00;99.90;;;;;;6188151;28;20359;-68
2022/07/11 07:29:22;;;;;;;0.60;0.60;;;19.80;99.90;;;;;;6187815;28;20290;-68
2022/07/11 07:32:27;;;;;;;0.60;0.60;;;19.70;99.90;;;;;;6188096;28;20278;-67
2022/07/11 07:35:52;;;;;;;0.70;0.70;;;19.70;99.90;;;;;;6187832;28;20254;-67
2022/07/11 07:38:57;;;;;;;0.90;0.90;;;19.80;99.90;;;;;;6187621;28;20273;-68
2022/07/11 07:42:03;;;;;;;0.68;0.68;;;20.00;99.90;;;;;;6187804;28;20274;-68
2022/07/11 07:45:09;;;;;;;0.60;0.60;;;20.00;99.60;;;;;;6187744;28;20278;-67
2022/07/11 07:48:15;;;;;;;0.60;0.60;;;20.00;99.90;;;;;;6187723;28;20278;-67
2022/07/11 07:51:22;;;;;;;0.52;0.52;;;20.10;99.60;;;;;;6187395;28;20274;-67
2022/07/11 07:54:27;;;;;;;0.55;0.55;;;20.10;99.90;;;;;;6188817;28;20298;-67
2022/07/11 07:57:32;;;;;;;1.00;0.50;;;20.20;99.20;;;;;;6192137;28;20306;-67
2022/07/11 08:04:00;;;;;;;0.60;0.60;;;20.30;99.00;;;;;;6189516;28;20620;-67
2022/07/11 08:07:07;;;;;;;0.70;0.70;;;20.30;98.80;;;;;;6167842;29;20278;-67
2022/07/11 08:10:14;;;;;;;1.77;0.65;;;20.20;99.20;;;;;;6168283;29;20271;-68
2022/07/11 08:13:20;;;;;;;0.90;0.80;;;20.40;99.70;;;;;;6167783;29;20307;-68
2022/07/11 08:16:25;;;;;;;0.73;0.73;;;20.50;99.10;;;;;;6167498;29;20278;-68
2022/07/11 08:19:31;;;;;;;0.80;0.60;;;20.60;99.40;;;;;;6167759;28;20278;-68
2022/07/11 08:22:37;;;;;;;0.68;0.68;;;20.70;98.30;;;;;;6167675;28;20275;-68
2022/07/11 08:25:43;;;;;;;0.60;0.60;;;20.80;98.80;;;;;;6167811;29;20295;-67
2022/07/11 08:28:48;;;;;;;1.65;0.80;;;20.80;96.60;;;;;;6167412;29;20267;-68
2022/07/11 08:31:53;;;;;;;1.10;0.63;;;20.70;96.60;;;;;;6167399;29;20449;-68
2022/07/11 08:34:59;;;;;;;0.60;0.60;;;20.70;96.80;;;;;;6167712;29;20278;-68
2022/07/11 08:38:06;;;;;;;0.70;0.70;;;20.80;96.80;;;;;;6167649;29;20577;-68
2022/07/11 08:41:12;;;;;;;0.60;0.60;;;20.70;97.00;;;;;;6167108;29;20275;-68
2022/07/11 08:44:17;;;;;;;0.70;0.70;;;20.60;97.50;;;;;;6167197;28;20609;-68
2022/07/11 08:47:26;;;;;;;0.80;0.80;;;20.40;97.30;;;;;;6167447;29;20290;-68
2022/07/11 08:50:31;;;;;;;0.60;0.60;;;20.40;97.60;;;;;;6166957;29;20270;-68
2022/07/11 08:53:44;;;;;;;2.72;0.60;;;20.40;97.70;;;;;;6167316;29;20278;-68
2022/07/11 08:56:52;;;;;;;0.60;0.60;;;20.20;97.30;;;;;;6167228;29;20271;-68
2022/07/11 08:59:58;;;;;;;0.60;0.60;;;20.20;96.70;;;;;;6167065;29;20271;-68
2022/07/11 09:03:05;;;;;;;0.70;0.70;;;20.20;96.60;;;;;;6166726;28;20278;-68
2022/07/11 09:06:13;;;;;;;1.38;0.60;;;20.30;97.70;;;;;;6165840;28;20271;-68
2022/07/11 09:09:19;;;;;;;0.60;0.60;;;20.30;96.80;;;;;;6166385;28;20274;-68
2022/07/11 09:12:25;;;;;;;0.60;0.60;;;20.30;97.10;;;;;;6175778;28;20306;-68
2022/07/11 09:15:38;;;;;;;1.17;0.60;;;20.40;97.10;;;;;;6190587;28;20277;-68
2022/07/11 09:18:43;;;;;;;0.73;0.60;;;20.50;97.10;;;;;;6190470;28;20570;-68
2022/07/11 09:25:30;;;;;;;1.38;1.20;;;20.60;97.20;;;;;;6190412;28;20478;-68
2022/07/11 09:28:35;;;;;;;9.18;8.50;;;20.40;96.50;;;;;;6190083;28;20273;-68
2022/07/11 09:31:44;;;;;;;1.00;0.90;;;20.40;96.30;;;;;;6190151;28;20573;-68
2022/07/11 09:35:01;;;;;;;0.55;0.55;;;20.30;96.60;;;;;;6190213;28;20286;-68
2022/07/11 09:38:08;;;;;;;0.70;0.70;;;20.30;96.30;;;;;;6189623;28;20274;-68
2022/07/11 09:41:14;;;;;;;0.47;0.47;;;20.40;96.70;;;;;;6190067;28;20358;-68
2022/07/11 09:44:22;;;;;;;0.95;0.70;;;20.30;96.00;;;;;;6189557;28;20290;-68
2022/07/11 09:47:27;;;;;;;1.85;0.88;;;20.40;96.40;;;;;;6189953;28;20549;-68
2022/07/11 09:50:33;;;;;;;0.50;0.50;;;20.40;96.20;;;;;;6189915;28;20273;-67
2022/07/11 09:53:55;;;;;;;0.73;0.73;;;20.40;95.70;;;;;;6189187;28;20282;-67
2022/07/11 09:57:11;;;;;;;0.63;0.63;;;20.40;94.90;;;;;;6189100;28;20274;-66
2022/07/11 10:00:16;;;;;;;0.70;0.70;;;20.40;93.80;;;;;;6189566;28;20278;-67
2022/07/11 10:03:23;;;;;;;2.08;0.80;;;20.30;94.30;;;;;;6189049;28;20273;-68
2022/07/11 10:06:48;;;;;;;1.25;0.52;;;20.40;94.70;;;;;;6141709;29;20275;-68
2022/07/11 10:09:54;;;;;;;0.75;0.75;;;20.40;94.50;;;;;;6141421;29;20279;-68
2022/07/11 10:13:01;;;;;;;0.60;0.60;;;20.40;93.80;;;;;;6140828;29;20302;-68
2022/07/11 10:16:18;;;;;;;1.85;1.75;;;20.40;94.40;;;;;;6141410;29;20380;-67
2022/07/11 10:19:48;;;;;;;1.35;1.00;;;20.50;94.20;;;;;;6140329;29;20380;-68
2022/07/11 10:23:10;;;;;;;3.97;3.88;;;20.60;94.80;;;;;;6140737;29;20275;-68
2022/07/11 10:26:23;;;;;;;1.77;1.40;;;20.70;94.60;;;;;;6140915;29;20291;-68
2022/07/11 10:29:35;;;;;;;0.90;0.90;;;20.80;94.80;;;;;;6140805;29;20295;-68
2022/07/11 10:32:59;;;;;;;1.95;0.90;;;21.00;94.40;;;;;;6141150;29;20279;-68
2022/07/11 10:36:05;;;;;;;3.50;0.80;;;21.00;93.80;;;;;;6140976;29;20279;-68
2022/07/11 10:39:17;;;;;;;0.60;0.60;;;21.00;93.30;;;;;;6140609;29;20275;-68
2022/07/11 10:42:22;;;;;;;2.25;0.80;;;21.00;92.60;;;;;;6140632;29;20271;-68
2022/07/11 10:45:29;;;;;;;0.90;0.88;;;21.10;92.60;;;;;;6140687;29;20475;-68
2022/07/11 10:48:36;;;;;;;0.50;0.50;;;21.10;91.50;;;;;;6140097;29;20280;-68
2022/07/11 10:51:53;;;;;;;0.60;0.60;;;21.10;90.20;;;;;;6140255;29;20566;-68
2022/07/11 10:55:36;;;;;;;0.40;0.40;;;21.00;89.60;;;;;;6139818;29;20275;-68
2022/07/11 10:58:43;;;;;;;0.50;0.50;;;21.00;89.90;;;;;;6140632;29;20279;-68
2022/07/11 11:02:14;;;;;;;0.50;0.50;;;21.10;90.00;;;;;;6140589;29;20271;-67
2022/07/11 11:05:43;;;;;;;1.65;0.60;;;21.10;90.20;;;;;;6153183;29;20290;-68
2022/07/11 11:08:48;;;;;;;0.82;0.82;;;21.30;92.00;;;;;;6164182;28;20274;-68
2022/07/11 11:11:53;;;;;;;0.98;0.82;;;21.50;92.60;;;;;;6169103;28;20298;-68
2022/07/11 11:15:35;;;;;;;0.60;0.60;;;21.50;92.20;;;;;;6187733;28;20297;-67
2022/07/11 11:18:45;;;;;;;0.70;0.70;;;21.40;91.10;;;;;;6187855;28;20274;-67
2022/07/11 11:22:02;;;;;;;2.38;0.80;;;21.40;89.10;;;;;;6187627;28;20463;-68
2022/07/11 11:25:08;;;;;;;0.75;0.75;;;21.50;90.00;;;;;;6187818;28;20289;-68
2022/07/11 11:28:26;;;;;;;3.17;1.05;;;21.50;89.30;;;;;;6188046;28;20274;-68
2022/07/11 11:31:32;;;;;;;0.70;0.70;;;21.70;90.10;;;;;;6192670;28;20274;-67
2022/07/11 11:34:41;;;;;;;1.75;0.73;;;21.90;90.00;;;;;;6192351;28;20273;-68
2022/07/11 11:37:46;;;;;;;0.80;0.80;;;22.10;90.40;;;;;;6192122;28;20281;-68
2022/07/11 11:40:51;;;;;;;0.70;0.70;;;22.30;90.40;;;;;;6192351;28;20274;-67
2022/07/11 11:44:02;;;;;;;0.98;0.80;;;22.30;90.90;;;;;;6192317;28;20277;-67
2022/07/11 11:47:07;;;;;;;0.60;0.60;;;22.20;90.30;;;;;;6192613;28;20289;-68
2022/07/11 11:50:21;;;;;;;0.60;0.60;;;22.10;90.20;;;;;;6192689;28;20274;-68
2022/07/11 11:53:26;;;;;;;0.80;0.70;;;22.00;88.70;;;;;;6192334;28;20274;-68
2022/07/11 11:56:33;;;;;;;0.50;0.50;;;21.90;88.10;;;;;;6192373;28;20277;-68
2022/07/11 11:59:39;;;;;;;0.70;0.70;;;21.90;87.80;;;;;;6191927;28;20273;-68
2022/07/11 12:02:44;;;;;;;0.80;0.80;;;22.00;89.50;;;;;;6192271;28;20323;-68
2022/07/11 12:05:58;;;;;;;0.70;0.70;;;22.10;90.20;;;;;;6175246;28;20286;-67
2022/07/11 12:09:05;;;;;;;0.50;0.50;;;22.10;88.40;;;;;;6168018;29;20274;-67
2022/07/11 12:16:39;;;;;;;1.58;0.70;;;22.10;88.40;;;;;;6168054;29;20274;-68
2022/07/11 12:19:01;;;;;;;0.80;0.80;;;22.20;88.80;;;;;;6168201;28;20282;-68
2022/07/11 12:22:08;;;;;;;0.68;0.65;;;22.40;90.10;;;;;;6168007;29;20274;-67
2022/07/11 12:25:14;;;;;;;1.85;0.70;;;22.40;90.70;;;;;;6167682;29;20276;-67
2022/07/11 12:28:20;;;;;;;2.10;1.25;;;22.40;91.50;;;;;;6167429;29;20294;-67
2022/07/11 12:31:25;;;;;;;1.13;0.73;;;22.50;92.40;;;;;;6168038;28;20274;-67
2022/07/11 12:34:44;;;;;;;0.82;0.82;;;22.30;91.80;;;;;;6167721;29;20283;-67
2022/07/11 12:37:55;;;;;;;1.00;1.00;;;22.20;91.80;;;;;;6167557;29;20286;-67
2022/07/11 12:41:02;;;;;;;1.83;1.73;;;22.00;91.70;;;;;;6166782;28;20275;-67
2022/07/11 12:47:31;;;;;;;2.58;0.93;;;21.70;94.50;;;;;;6167511;28;20299;-67
2022/07/11 12:50:37;;;;;;;1.88;0.98;;;21.60;95.00;;;;;;6167317;29;20542;-67
2022/07/11 12:53:43;;;;;;;0.82;0.80;;;21.30;95.70;;;;;;6167195;29;20274;-67
2022/07/11 12:56:57;;;;;;;1.05;1.02;;;21.10;95.80;;;;;;6166697;29;20279;-67
2022/07/11 13:00:16;;;;;;;1.17;1.17;;;21.10;96.40;;;;;;6166998;29;20275;-67
2022/07/11 13:03:29;;;;;;;5.22;1.33;;;20.90;97.40;;;;;;6167018;29;20270;-67
2022/07/11 13:10:10;;;;;;;1.40;1.27;;;20.60;98.30;;;;;;6166673;28;20278;-67
2022/07/11 13:13:18;;;;;;;3.53;1.55;;;20.60;99.40;;;;;;6182916;28;20302;-67
2022/07/11 13:16:23;;;;;;;1.30;1.30;;;20.40;99.00;;;;;;6190667;28;20306;-67
2022/07/11 13:19:28;;;;;;;0.90;0.90;;;20.40;99.70;;;;;;6190615;28;20270;-67
2022/07/11 13:22:34;;;;;;;1.10;1.10;;;20.30;99.90;;;;;;6190186;28;20274;-67
2022/07/11 13:25:42;;;;;;;1.20;1.20;;;20.20;99.90;;;;;;6190379;28;20274;-67
2022/07/11 13:28:47;;;;;;;4.10;1.40;;;20.30;99.90;;;;;;6190094;28;20592;-67
2022/07/11 13:31:52;;;;;;;1.13;1.13;;;20.30;99.90;;;;;;6190180;28;20273;-67
2022/07/11 13:34:57;;;;;;;1.45;1.38;;;20.30;99.90;;;;;;6190260;28;20278;-67
2022/07/11 13:38:02;;;;;;;1.20;1.20;;;20.40;99.90;;;;;;6189913;28;20307;-67
2022/07/11 13:41:10;;;;;;;1.40;1.30;;;20.40;99.90;;;;;;6190029;28;20270;-67
2022/07/11 13:44:21;;;;;;;1.00;1.00;;;20.50;99.90;;;;;;6189885;28;20318;-67
2022/07/11 13:47:27;;;;;;;1.33;1.10;;;20.80;99.90;;;;;;6189946;28;20293;-67
2022/07/11 13:50:32;;;;;;;1.17;1.17;;;20.80;99.90;;;;;;6189899;28;20277;-67
2022/07/11 13:53:37;;;;;;;2.03;1.10;;;21.20;99.90;;;;;;6189079;28;20273;-67
2022/07/11 13:56:43;;;;;;;3.15;3.05;;;21.30;99.90;;;;;;6189511;28;20273;-67
2022/07/11 13:59:49;;;;;;;3.20;3.08;;;21.30;99.90;;;;;;6189485;28;20273;-67
2022/07/11 14:02:54;;;;;;;2.38;1.38;;;21.40;99.90;;;;;;6189348;28;20274;-67
2022/07/11 14:06:00;;;;;;;1.83;1.20;;;21.30;99.90;;;;;;6171035;28;20270;-67
2022/07/11 14:09:05;;;;;;;1.10;1.10;;;21.00;99.90;;;;;;6165032;28;20458;-67
2022/07/11 14:12:13;;;;;;;1.00;1.00;;;20.90;99.70;;;;;;6164908;29;20306;-67
2022/07/11 14:15:18;;;;;;;1.17;1.17;;;20.80;99.90;;;;;;6165282;29;20274;-67
2022/07/11 14:18:23;;;;;;;1.00;1.00;;;20.90;99.70;;;;;;6165217;29;20283;-67
2022/07/11 14:21:29;;;;;;;0.80;0.80;;;20.80;99.70;;;;;;6165370;29;20275;-67
2022/07/11 14:24:35;;;;;;;1.08;0.88;;;20.80;99.90;;;;;;6165267;29;20274;-67
2022/07/11 14:27:41;;;;;;;0.82;0.80;;;20.80;99.90;;;;;;6165052;29;20294;-67
2022/07/11 14:30:47;;;;;;;1.40;0.90;;;20.80;99.90;;;;;;6164931;29;20274;-67
2022/07/11 14:33:55;;;;;;;2.15;1.00;;;20.70;99.90;;;;;;6164929;29;20266;-67
2022/07/11 14:37:00;;;;;;;1.02;0.95;;;20.70;99.90;;;;;;6164567;29;20278;-67
2022/07/11 14:40:07;;;;;;;1.60;1.05;;;20.80;99.90;;;;;;6164641;28;20557;-67
2022/07/11 14:43:13;;;;;;;1.65;0.98;;;21.10;99.90;;;;;;6164637;28;20270;-67
2022/07/11 14:46:19;;;;;;;0.90;0.90;;;21.30;99.90;;;;;;6164009;29;20278;-67
2022/07/11 14:49:25;;;;;;;1.15;1.15;;;21.30;99.90;;;;;;6164100;29;20484;-67
2022/07/11 14:52:31;;;;;;;3.40;3.05;;;21.20;99.90;;;;;;6163817;29;20439;-67
2022/07/11 14:55:36;;;;;;;2.40;2.15;;;21.10;99.90;;;;;;6164760;28;20451;-67
2022/07/11 14:58:42;;;;;;;3.72;3.63;;;21.10;99.90;;;;;;6164596;29;20278;-67
2022/07/11 15:01:48;;;;;;;2.13;2.13;;;21.00;99.90;;;;;;6164588;28;20439;-67
2022/07/11 15:04:53;;;;;;;1.30;1.30;;;20.90;99.90;;;;;;6164070;28;20271;-67
2022/07/11 15:14:45;;;;;;;1.20;1.20;;;20.70;99.90;;;;;;6188126;28;20277;-67
2022/07/11 15:17:51;;;;;;;1.13;1.13;;;20.60;99.90;;;;;;6187433;28;20301;-67
2022/07/11 15:20:56;;;;;;;1.30;1.30;;;20.50;99.90;;;;;;6187616;28;20278;-67
2022/07/11 15:24:02;;;;;;;1.33;1.20;;;20.50;99.90;;;;;;6187753;28;20469;-67
2022/07/11 15:27:09;;;;;;;1.20;1.20;;;20.30;99.90;;;;;;6188052;28;20274;-67
2022/07/11 15:30:16;;;;;;;2.33;1.10;;;20.30;99.90;;;;;;6187783;28;20298;-67
2022/07/11 15:33:22;;;;;;;8.13;1.42;;;20.30;99.90;;;;;;6187696;28;20270;-67
2022/07/11 15:36:27;;;;;;;1.38;1.38;;;20.10;99.90;;;;;;6187384;28;20580;-67
2022/07/11 15:39:32;;;;;;;1.30;1.30;;;20.10;99.90;;;;;;6187889;28;20468;-67
2022/07/11 15:42:38;;;;;;;1.40;1.40;;;20.10;99.90;;;;;;6187994;28;20274;-67
2022/07/11 15:45:44;;;;;;;3.78;1.40;;;20.20;99.90;;;;;;6187611;28;20278;-67
2022/07/11 15:48:49;;;;;;;6.22;1.30;;;20.10;99.90;;;;;;6187594;28;20298;-67
2022/07/11 15:51:55;;;;;;;2.20;2.00;;;20.10;99.90;;;;;;6187679;28;20274;-67
2022/07/11 15:55:00;;;;;;;2.42;2.33;;;20.10;99.90;;;;;;6187628;28;20273;-68
2022/07/11 15:58:06;;;;;;;4.72;4.35;;;20.00;99.90;;;;;;6187343;28;20514;-68
2022/07/11 16:01:12;;;;;;;3.65;3.00;;;20.00;99.90;;;;;;6187507;28;20281;-67
2022/07/11 16:04:18;;;;;;;2.03;1.92;;;20.00;99.90;;;;;;6182808;28;20271;-67
2022/07/11 16:07:23;;;;;;;1.48;1.38;;;20.00;99.90;;;;;;6163608;28;20275;-67
2022/07/11 16:10:28;;;;;;;1.77;1.50;;;20.00;99.90;;;;;;6163159;29;20294;-67
2022/07/11 16:13:33;;;;;;;5.00;1.52;;;19.90;99.90;;;;;;6163355;29;20302;-66
2022/07/11 16:16:40;;;;;;;2.50;2.10;;;19.80;99.90;;;;;;6166253;28;20453;-66
2022/07/11 16:19:52;;;;;;;1.50;1.50;;;19.90;99.90;;;;;;6167702;29;20279;-66
2022/07/11 16:22:57;;;;;;;1.50;1.50;;;19.90;99.90;;;;;;6167808;29;20279;-66
2022/07/11 16:26:02;;;;;;;1.50;1.50;;;19.90;99.90;;;;;;6167777;28;20279;-67
2022/07/11 16:29:08;;;;;;;2.97;1.10;;;19.90;99.90;;;;;;6167882;29;20601;-67
2022/07/11 16:32:14;;;;;;;1.20;1.20;;;20.00;99.90;;;;;;6168017;29;20275;-66
2022/07/11 16:35:20;;;;;;;1.15;1.15;;;20.20;99.90;;;;;;6167542;28;20274;-67
2022/07/11 16:38:25;;;;;;;1.00;1.00;;;20.20;99.90;;;;;;6167918;28;20279;-67
2022/07/11 16:44:53;;;;;;;1.00;1.00;;;20.00;99.90;;;;;;6167907;29;20274;-67
2022/07/11 16:47:59;;;;;;;1.10;1.10;;;20.00;99.90;;;;;;6167253;29;20274;-67